createdAt,value
2023-01-29T00:00:01.198Z,-1.36
2023-01-29T00:10:20.859Z,-1.39
2023-01-29T00:10:32.542Z,-1.40
2023-01-29T00:15:36.808Z,-1.41
2023-01-29T00:20:44.569Z,-1.41
2023-01-29T00:25:49.005Z,-1.38
2023-01-29T00:30:53.174Z,-1.33
2023-01-29T00:35:57.543Z,-1.31
2023-01-29T00:41:27.464Z,-1.33
2023-01-29T00:46:31.438Z,-1.38
2023-01-29T00:51:38.764Z,-1.44
2023-01-29T00:56:43.686Z,-1.46
2023-01-29T01:02:04.883Z,-1.46
2023-01-29T01:12:17.934Z,-1.45
2023-01-29T01:17:21.967Z,-1.47
2023-01-29T01:22:26.399Z,-1.48
2023-01-29T01:27:31.144Z,-1.49
2023-01-29T01:32:35.915Z,-1.53
2023-01-29T01:38:08.788Z,-1.53
2023-01-29T01:43:15.213Z,-1.53
2023-01-29T01:48:22.482Z,-1.53
2023-01-29T01:53:30.906Z,-1.56
2023-01-29T01:58:44.155Z,-1.60
2023-01-29T02:04:13.892Z,-1.64
2023-01-29T02:09:36.043Z,-1.67
2023-01-29T02:14:42.694Z,-1.70
2023-01-29T02:19:56.361Z,-1.72
2023-01-29T02:25:10.550Z,-1.76
2023-01-29T02:30:23.751Z,-1.77
2023-01-29T02:35:32.462Z,-1.79
2023-01-29T02:40:44.045Z,-1.84
2023-01-29T02:45:56.066Z,-1.89
2023-01-29T02:51:05.561Z,-1.91
2023-01-29T02:56:13.453Z,-1.88
2023-01-29T03:01:24.166Z,-1.86
2023-01-29T03:06:33.461Z,-1.90
2023-01-29T03:11:45.628Z,-1.96
2023-01-29T03:16:52.428Z,-2.01
2023-01-29T03:22:03.801Z,-2.02
2023-01-29T03:27:30.895Z,-2.01
2023-01-29T03:32:40.413Z,-2.03
2023-01-29T03:37:48.287Z,-2.06
2023-01-29T03:43:06.126Z,-2.08
2023-01-29T03:48:16.769Z,-2.10
2023-01-29T03:53:29.668Z,-2.15
2023-01-29T03:58:39.627Z,-2.18
2023-01-29T04:03:50.828Z,-2.17
2023-01-29T04:08:59.805Z,-2.15
2023-01-29T04:14:04.422Z,-2.16
2023-01-29T04:19:09.192Z,-2.17
2023-01-29T04:24:14.180Z,-2.17
2023-01-29T04:29:34.105Z,-2.22
2023-01-29T04:34:51.969Z,-2.24
2023-01-29T04:40:04.096Z,-2.25
2023-01-29T04:45:19.028Z,-2.25
2023-01-29T04:50:29.456Z,-2.27
2023-01-29T04:55:42.834Z,-2.31
2023-01-29T05:00:50.450Z,-2.35
2023-01-29T05:05:56.793Z,-2.37
2023-01-29T05:11:01.232Z,-2.37
2023-01-29T05:16:13.485Z,-2.37
2023-01-29T05:21:17.610Z,-2.41
2023-01-29T05:26:41.491Z,-2.44
2023-01-29T05:31:45.946Z,-2.47
2023-01-29T05:36:50.547Z,-2.44
2023-01-29T05:41:54.483Z,-2.45
2023-01-29T05:46:58.553Z,-2.48
2023-01-29T05:52:02.417Z,-2.51
2023-01-29T05:57:06.327Z,-2.54
2023-01-29T06:02:10.664Z,-2.58
2023-01-29T06:07:15.136Z,-2.66
2023-01-29T06:12:19.041Z,-2.70
2023-01-29T06:19:10.962Z,-2.73
2023-01-29T06:24:18.968Z,-2.80
2023-01-29T06:29:26.586Z,-2.84
2023-01-29T06:34:33.744Z,-2.86
2023-01-29T06:39:39.784Z,-2.86
2023-01-29T06:44:47.532Z,-2.89
2023-01-29T06:49:54.951Z,-2.93
2023-01-29T06:55:02.649Z,-2.95
2023-01-29T07:00:12.622Z,-2.99
2023-01-29T07:05:20.379Z,-3.02
2023-01-29T07:10:28.115Z,-3.05
2023-01-29T07:15:37.215Z,-3.06
2023-01-29T07:20:45.574Z,-3.09
2023-01-29T07:25:53.208Z,-3.11
2023-01-29T07:31:01.708Z,-3.11
2023-01-29T07:36:13.090Z,-3.09
2023-01-29T07:41:20.617Z,-3.10
2023-01-29T07:46:27.943Z,-3.16
2023-01-29T07:51:35.103Z,-3.23
2023-01-29T07:56:42.846Z,-3.26
2023-01-29T08:01:49.919Z,-3.21
2023-01-29T08:06:56.963Z,-3.11
2023-01-29T08:12:04.126Z,-2.96
2023-01-29T08:19:46.866Z,-2.76
2023-01-29T08:25:06.186Z,-2.71
2023-01-29T08:30:17.674Z,-2.65
2023-01-29T08:35:26.452Z,-2.61
2023-01-29T08:40:35.867Z,-2.62
2023-01-29T08:45:45.636Z,-2.63
2023-01-29T08:50:53.096Z,-2.65
2023-01-29T08:56:00.623Z,-2.65
2023-01-29T09:01:14.599Z,-2.60
2023-01-29T09:06:22.436Z,-2.53
2023-01-29T09:11:30.063Z,-2.47
2023-01-29T09:16:37.932Z,-2.51
2023-01-29T09:21:46.015Z,-2.54
2023-01-29T09:26:53.516Z,-2.47
2023-01-29T09:32:01.041Z,-2.33
2023-01-29T09:37:09.046Z,-2.30
2023-01-29T09:42:25.372Z,-2.36
2023-01-29T09:47:36.646Z,-2.39
2023-01-29T09:52:51.666Z,-2.39
2023-01-29T09:58:03.127Z,-2.38
2023-01-29T10:03:36.565Z,-2.38
2023-01-29T10:09:18.839Z,-2.47
2023-01-29T10:14:40.628Z,-2.49
2023-01-29T10:20:04.619Z,-2.41
2023-01-29T10:25:15.960Z,-2.35
2023-01-29T10:30:32.745Z,-2.34
2023-01-29T10:35:44.198Z,-2.33
2023-01-29T10:41:01.786Z,-2.25
2023-01-29T10:46:23.925Z,-2.13
2023-01-29T10:52:01.363Z,-2.02
2023-01-29T10:57:20.452Z,-2.03
2023-01-29T11:02:28.160Z,-2.09
2023-01-29T11:07:35.946Z,-2.13
2023-01-29T11:12:45.236Z,-2.12
2023-01-29T11:19:19.351Z,-2.03
2023-01-29T11:24:27.442Z,-2.01
2023-01-29T11:29:45.206Z,-2.04
2023-01-29T11:35:04.618Z,-2.05
2023-01-29T11:40:37.435Z,-2.14
2023-01-29T11:45:45.703Z,-2.21
2023-01-29T11:51:00.997Z,-2.21
2023-01-29T11:56:22.627Z,-2.16
2023-01-29T12:01:34.545Z,-2.10
2023-01-29T12:06:52.422Z,-2.07
2023-01-29T12:12:28.159Z,-2.05
2023-01-29T12:19:28.711Z,-2.04
2023-01-29T12:24:41.645Z,-2.06
2023-01-29T12:29:57.519Z,-2.08
2023-01-29T12:35:14.201Z,-2.10
2023-01-29T12:40:25.062Z,-2.15
2023-01-29T12:45:34.418Z,-2.10
2023-01-29T12:50:43.143Z,-2.10
2023-01-29T12:55:55.952Z,-2.09
2023-01-29T13:01:09.939Z,-2.05
2023-01-29T13:06:22.769Z,-1.98
2023-01-29T13:11:35.831Z,-1.93
2023-01-29T13:19:53.459Z,-1.85
2023-01-29T13:25:05.400Z,-1.88
2023-01-29T13:30:28.369Z,-1.87
2023-01-29T13:35:37.994Z,-1.90
2023-01-29T13:40:54.000Z,-1.98
2023-01-29T13:46:07.996Z,-2.02
2023-01-29T13:51:20.837Z,-2.01
2023-01-29T13:56:59.527Z,-2.02
2023-01-29T14:02:24.241Z,-2.07
2023-01-29T14:07:53.528Z,-2.09
2023-01-29T14:13:36.238Z,-2.07
2023-01-29T14:18:53.261Z,-2.01
2023-01-29T14:24:11.064Z,-1.98
2023-01-29T14:29:33.743Z,-1.97
2023-01-29T14:34:49.746Z,-2.02
2023-01-29T14:40:00.146Z,-2.09
2023-01-29T14:45:22.894Z,-2.12
2023-01-29T14:50:51.865Z,-2.17
2023-01-29T14:56:03.304Z,-2.24
2023-01-29T15:01:21.362Z,-2.32
2023-01-29T15:06:37.622Z,-2.38
2023-01-29T15:11:56.154Z,-2.41
2023-01-29T15:17:18.976Z,-2.42
2023-01-29T15:22:29.356Z,-2.44
2023-01-29T15:27:37.285Z,-2.44
2023-01-29T15:32:46.349Z,-2.50
2023-01-29T15:38:04.424Z,-2.52
2023-01-29T15:43:23.980Z,-2.54
2023-01-29T15:48:36.295Z,-2.60
2023-01-29T15:53:50.145Z,-2.65
2023-01-29T15:59:00.522Z,-2.70
2023-01-29T16:04:12.935Z,-2.74
2023-01-29T16:09:23.756Z,-2.78
2023-01-29T16:14:32.455Z,-2.80
2023-01-29T16:19:40.319Z,-2.77
2023-01-29T16:24:53.397Z,-2.77
2023-01-29T16:30:02.450Z,-2.78
2023-01-29T16:35:17.107Z,-2.81
2023-01-29T16:40:33.406Z,-2.83
2023-01-29T16:45:41.114Z,-2.81
2023-01-29T16:50:55.154Z,-2.81
2023-01-29T16:56:09.244Z,-2.81
2023-01-29T17:01:17.802Z,-2.82
2023-01-29T17:06:28.235Z,-2.82
2023-01-29T17:11:40.059Z,-2.80
2023-01-29T17:16:55.185Z,-2.77
2023-01-29T17:22:05.841Z,-2.74
2023-01-29T17:27:18.576Z,-2.72
2023-01-29T17:32:44.074Z,-2.74
2023-01-29T17:37:52.669Z,-2.77
2023-01-29T17:43:00.367Z,-2.78
2023-01-29T17:48:14.021Z,-2.79
2023-01-29T17:53:23.669Z,-2.82
2023-01-29T17:58:32.692Z,-2.84
2023-01-29T18:03:41.690Z,-2.83
2023-01-29T18:08:49.719Z,-2.82
2023-01-29T18:13:57.881Z,-2.78
2023-01-29T18:19:05.603Z,-2.73
2023-01-29T18:24:13.104Z,-2.71
2023-01-29T18:29:20.704Z,-2.70
2023-01-29T18:34:28.209Z,-2.70
2023-01-29T18:39:36.328Z,-2.71
2023-01-29T18:44:44.627Z,-2.71
2023-01-29T18:49:52.533Z,-2.71
2023-01-29T18:55:01.383Z,-2.71
2023-01-29T19:00:10.725Z,-2.71
2023-01-29T19:05:23.126Z,-2.70
2023-01-29T19:10:30.871Z,-2.72
2023-01-29T19:15:39.188Z,-2.71
2023-01-29T19:20:47.704Z,-2.69
2023-01-29T19:25:59.249Z,-2.69
2023-01-29T19:31:09.440Z,-2.70
2023-01-29T19:36:18.128Z,-2.72
2023-01-29T19:41:26.132Z,-2.75
2023-01-29T19:46:33.357Z,-2.78
2023-01-29T19:51:41.633Z,-2.81
2023-01-29T19:56:48.986Z,-2.79
2023-01-29T20:01:57.060Z,-2.78
2023-01-29T20:07:04.531Z,-2.77
2023-01-29T20:12:13.363Z,-2.77
2023-01-29T20:17:22.226Z,-2.75
2023-01-29T20:22:30.193Z,-2.73
2023-01-29T20:27:37.553Z,-2.68
2023-01-29T20:32:45.623Z,-2.64
2023-01-29T20:37:52.961Z,-2.62
2023-01-29T20:43:00.991Z,-2.62
2023-01-29T20:48:09.001Z,-2.61
2023-01-29T20:53:17.540Z,-2.62
2023-01-29T20:58:25.049Z,-2.58
2023-01-29T21:03:32.979Z,-2.52
2023-01-29T21:08:42.085Z,-2.50
2023-01-29T21:19:29.211Z,-2.48
2023-01-29T21:24:36.972Z,-2.51
2023-01-29T21:29:44.689Z,-2.54
2023-01-29T21:34:52.788Z,-2.56
2023-01-29T21:40:01.033Z,-2.59
2023-01-29T21:45:11.781Z,-2.59
2023-01-29T21:50:20.341Z,-2.57
2023-01-29T21:55:28.106Z,-2.60
2023-01-29T22:00:36.258Z,-2.64
2023-01-29T22:05:44.556Z,-2.68
2023-01-29T22:10:52.363Z,-2.73
2023-01-29T22:16:00.225Z,-2.75
2023-01-29T22:21:08.562Z,-2.77
2023-01-29T22:26:16.384Z,-2.77
2023-01-29T22:31:23.874Z,-2.79
2023-01-29T22:36:31.425Z,-2.82
2023-01-29T22:41:38.893Z,-2.84
2023-01-29T22:46:46.252Z,-2.86
2023-01-29T22:52:10.292Z,-2.86
2023-01-29T22:57:19.538Z,-2.85
2023-01-29T23:02:27.254Z,-2.84
2023-01-29T23:07:34.974Z,-2.84
2023-01-29T23:12:43.022Z,-2.87
2023-01-29T23:17:51.350Z,-2.91
2023-01-29T23:22:59.697Z,-2.94
2023-01-29T23:28:07.785Z,-3.00
2023-01-29T23:33:17.317Z,-3.05
2023-01-29T23:38:24.904Z,-3.10
2023-01-29T23:43:33.854Z,-3.14
2023-01-29T23:48:41.572Z,-3.13
2023-01-29T23:53:49.061Z,-3.08
2023-01-29T23:59:00.465Z,-3.04
